Time,TemperatureF,DewpointF,PressureIn,WindDirection,WindDirectionDegrees,WindSpeedMPH,WindSpeedGustMPH,Humidity,HourlyPrecipIn,Conditions,Clouds,dailyrainin,SoftwareType,DateUTC
2014-10-31 00:23:00,36.0,31.0,30.39,NNW,333,3.0,4.0,81,0.00,,,0.00,,2014-10-31 05:23:00,
2014-10-31 00:43:00,36.0,31.0,30.39,NNW,338,2.0,5.0,82,0.00,,,0.00,,2014-10-31 05:43:00,
2014-10-31 00:53:00,37.0,31.0,30.39,North,360,3.0,7.0,79,0.00,,,0.00,,2014-10-31 05:53:00,
2014-10-31 01:12:00,37.0,30.0,30.40,NE,35,6.0,12.0,76,0.00,,,0.00,,2014-10-31 06:12:00,
2014-10-31 01:22:00,37.0,30.0,30.41,NNW,346,5.0,9.0,75,0.00,,,0.00,,2014-10-31 06:22:00,
2014-10-31 01:42:00,36.0,29.0,30.41,NNW,332,5.0,9.0,74,0.00,,,0.00,,2014-10-31 06:42:00,
2014-10-31 01:52:00,36.0,29.0,30.42,North,349,3.0,8.0,74,0.00,,,0.00,,2014-10-31 06:52:00,
2014-10-31 02:11:00,36.0,29.0,30.42,North,9,3.0,8.0,74,0.00,,,0.00,,2014-10-31 07:11:00,
2014-10-31 02:22:00,35.0,27.0,30.43,North,355,3.0,10.0,73,0.00,,,0.00,,2014-10-31 07:22:00,
2014-10-31 02:42:00,36.0,28.0,30.43,NNW,333,4.0,10.0,73,0.00,,,0.00,,2014-10-31 07:42:00,
2014-10-31 02:52:00,34.0,26.0,30.43,NNW,341,4.0,7.0,71,0.00,,,0.00,,2014-10-31 07:52:00,
2014-10-31 03:22:00,33.0,25.0,30.44,North,5,3.0,6.0,73,0.00,,,0.00,,2014-10-31 08:22:00,
2014-10-31 03:43:00,33.0,25.0,30.44,NNW,344,3.0,7.0,73,0.00,,,0.00,,2014-10-31 08:43:00,
2014-10-31 03:52:00,33.0,25.0,30.45,NNE,17,4.0,7.0,72,0.00,,,0.00,,2014-10-31 08:52:00,
2014-10-31 04:12:00,32.0,24.0,30.45,NNW,337,3.0,6.0,72,0.00,,,0.00,,2014-10-31 09:12:00,
2014-10-31 04:23:00,32.0,24.0,30.46,North,360,1.0,4.0,73,0.00,,,0.00,,2014-10-31 09:23:00,
2014-10-31 04:43:00,32.0,24.0,30.46,NNW,336,2.0,6.0,72,0.00,,,0.00,,2014-10-31 09:43:00,
2014-10-31 04:53:00,32.0,24.0,30.47,North,5,3.0,6.0,73,0.00,,,0.00,,2014-10-31 09:53:00,
2014-10-31 05:23:00,30.0,19.0,30.48,NE,51,2.0,4.0,64,0.00,,,0.00,,2014-10-31 10:23:00,
2014-10-31 05:42:00,29.0,19.0,30.49,NE,48,1.0,3.0,65,0.00,,,0.00,,2014-10-31 10:42:00,
2014-10-31 05:53:00,28.0,18.0,30.50,North,360,2.0,4.0,67,0.00,,,0.00,,2014-10-31 10:53:00,
2014-10-31 06:12:00,27.0,18.0,30.50,North,360,1.0,4.0,69,0.00,,,0.00,,2014-10-31 11:12:00,
2014-10-31 06:22:00,26.0,18.0,30.50,North,360,1.0,3.0,71,0.00,,,0.00,,2014-10-31 11:22:00,
2014-10-31 06:42:00,26.0,18.0,30.50,North,360,1.0,2.0,72,0.00,,,0.00,,2014-10-31 11:42:00,
2014-10-31 06:52:00,25.0,18.0,30.50,North,360,0.0,1.0,73,0.00,,,0.00,,2014-10-31 11:52:00,
2014-10-31 07:12:00,24.0,17.0,30.50,North,360,0.0,2.0,74,0.00,,,0.00,,2014-10-31 12:12:00,
2014-10-31 07:22:00,24.0,17.0,30.50,North,360,0.0,1.0,75,0.00,,,0.00,,2014-10-31 12:22:00,
2014-10-31 07:42:00,23.0,17.0,30.51,North,360,0.0,0.0,77,0.00,,,0.00,,2014-10-31 12:42:00,
2014-10-31 07:52:00,22.0,16.0,30.51,North,360,0.0,1.0,78,0.00,,,0.00,,2014-10-31 12:52:00,
2014-10-31 08:22:00,21.0,16.0,30.50,North,360,0.0,0.0,80,0.00,,,0.00,,2014-10-31 13:22:00,
2014-10-31 08:42:00,21.0,16.0,30.50,North,360,0.0,0.0,80,0.00,,,0.00,,2014-10-31 13:42:00,
2014-10-31 08:52:00,21.0,16.0,30.51,North,360,0.0,0.0,81,0.00,,,0.00,,2014-10-31 13:52:00,
2014-10-31 09:22:00,24.0,19.0,30.52,North,360,0.0,2.0,80,0.00,,,0.00,,2014-10-31 14:22:00,
2014-10-31 09:42:00,25.0,20.0,30.53,North,360,0.0,2.0,80,0.00,,,0.00,,2014-10-31 14:42:00,
2014-10-31 09:53:00,28.0,22.0,30.53,North,360,1.0,3.0,77,0.00,,,0.00,,2014-10-31 14:53:00,
2014-10-31 10:43:00,33.0,22.0,30.53,NE,36,3.0,6.0,63,0.00,,,0.00,,2014-10-31 15:43:00,
2014-10-31 10:53:00,34.0,22.0,30.53,ENE,59,2.0,7.0,61,0.00,,,0.00,,2014-10-31 15:53:00,
2014-10-31 11:13:00,34.0,21.0,30.53,North,5,1.0,4.0,59,0.00,,,0.00,,2014-10-31 16:13:00,
2014-10-31 11:24:00,36.0,23.0,30.53,NNE,25,1.0,4.0,58,0.00,,,0.00,,2014-10-31 16:24:00,
2014-10-31 11:43:00,37.0,23.0,30.53,NNE,32,1.0,4.0,56,0.00,,,0.00,,2014-10-31 16:43:00,
2014-10-31 11:54:00,38.0,22.0,30.53,NNE,31,1.0,3.0,53,0.00,,,0.00,,2014-10-31 16:54:00,
2014-10-31 13:22:00,42.0,19.0,30.49,NE,36,1.0,5.0,40,0.00,,,0.00,,2014-10-31 18:22:00,
2014-10-31 13:42:00,42.0,18.0,30.48,NE,34,4.0,7.0,38,0.00,,,0.00,,2014-10-31 18:42:00,
2014-10-31 13:52:00,41.0,19.0,30.47,NE,54,3.0,7.0,40,0.00,,,0.00,,2014-10-31 18:52:00,
2014-10-31 14:22:00,43.0,17.0,30.46,ESE,117,1.0,5.0,35,0.00,,,0.00,,2014-10-31 19:22:00,
2014-10-31 14:42:00,44.0,19.0,30.45,East,93,2.0,5.0,36,0.00,,,0.00,,2014-10-31 19:42:00,
2014-10-31 14:53:00,45.0,18.0,30.45,ESE,123,2.0,5.0,33,0.00,,,0.00,,2014-10-31 19:53:00,